Clementwood, Vermont
Current Conditions -  °F | °C
As of 9:55 PM on Sunday 28 Dec 2014 (Local Time) from KRUT Reporting Station
Broken Clouds Broken Clouds  
Wind Chill: 25°   Ceiling: 4000
Heat Index: 34°   Visibility: 10mi
Dew Point: 19°   Wind: 12mph
Humidity: 56%   Direction: 280°W
Pressure: 29.98"   Gusts: 22mph
Location:  43.6369°N, 72.9375°W
Report Text: KRUT 290255Z 28010G19KT 10SM BKN040 01/M07 A2998 RMK AO1 52017
Loading
Personal Weather Stations






























Interactive Weather Map New forecast layout! Learn more

10-Day Weather Forecast

Advertisements
Track Severe Weather on mobile